sensor_id;sensor_type;location;lat;lon;timestamp;temperature;humidity
8709;DHT22;4391;48.678;9.280;2022-12-08T00:01:25;0.40;99.90
8709;DHT22;4391;48.678;9.280;2022-12-08T00:03:53;0.30;99.90
8709;DHT22;4391;48.678;9.280;2022-12-08T00:06:23;0.20;99.90
8709;DHT22;4391;48.678;9.280;2022-12-08T00:09:15;0.10;99.90
8709;DHT22;4391;48.678;9.280;2022-12-08T00:11:49;0.00;99.90
8709;DHT22;4391;48.678;9.280;2022-12-08T00:14:16;-0.20;99.90
8709;DHT22;4391;48.678;9.280;2022-12-08T00:16:44;-0.20;99.90
8709;DHT22;4391;48.678;9.280;2022-12-08T00:19:11;-0.30;99.90
8709;DHT22;4391;48.678;9.280;2022-12-08T00:21:38;-0.30;99.90
8709;DHT22;4391;48.678;9.280;2022-12-08T00:24:05;-0.40;99.90
8709;DHT22;4391;48.678;9.280;2022-12-08T00:26:32;-0.40;99.90
8709;DHT22;4391;48.678;9.280;2022-12-08T00:28:59;-0.40;99.90
8709;DHT22;4391;48.678;9.280;2022-12-08T00:31:26;-0.50;99.90
8709;DHT22;4391;48.678;9.280;2022-12-08T00:33:55;-0.50;99.90
8709;DHT22;4391;48.678;9.280;2022-12-08T00:36:22;-0.50;99.90
8709;DHT22;4391;48.678;9.280;2022-12-08T00:38:48;-0.60;99.90
8709;DHT22;4391;48.678;9.280;2022-12-08T00:41:17;-0.50;99.90
8709;DHT22;4391;48.678;9.280;2022-12-08T00:44:05;-0.60;99.90
8709;DHT22;4391;48.678;9.280;2022-12-08T00:46:32;-0.60;99.90
8709;DHT22;4391;48.678;9.280;2022-12-08T00:49:00;-0.60;99.90
8709;DHT22;4391;48.678;9.280;2022-12-08T00:51:27;-0.60;99.90
8709;DHT22;4391;48.678;9.280;2022-12-08T00:53:53;-0.60;99.90
8709;DHT22;4391;48.678;9.280;2022-12-08T00:56:20;-0.60;99.90
8709;DHT22;4391;48.678;9.280;2022-12-08T00:58:47;-0.60;99.90
8709;DHT22;4391;48.678;9.280;2022-12-08T01:01:14;-0.60;99.90
8709;DHT22;4391;48.678;9.280;2022-12-08T01:03:41;-0.70;99.90
8709;DHT22;4391;48.678;9.280;2022-12-08T01:06:10;-0.70;99.90
8709;DHT22;4391;48.678;9.280;2022-12-08T01:08:38;-0.70;99.90
8709;DHT22;4391;48.678;9.280;2022-12-08T01:11:07;-0.70;99.90
8709;DHT22;4391;48.678;9.280;2022-12-08T01:13:34;-0.80;99.90
8709;DHT22;4391;48.678;9.280;2022-12-08T01:16:01;-0.80;99.90
8709;DHT22;4391;48.678;9.280;2022-12-08T01:18:29;-0.90;99.90
8709;DHT22;4391;48.678;9.280;2022-12-08T01:21:01;-0.90;99.90
8709;DHT22;4391;48.678;9.280;2022-12-08T01:23:29;-1.00;99.90
8709;DHT22;4391;48.678;9.280;2022-12-08T01:26:01;-1.10;99.90
8709;DHT22;4391;48.678;9.280;2022-12-08T01:28:28;-1.20;99.90
8709;DHT22;4391;48.678;9.280;2022-12-08T01:30:55;-1.20;99.90
8709;DHT22;4391;48.678;9.280;2022-12-08T01:33:22;-1.30;99.90
8709;DHT22;4391;48.678;9.280;2022-12-08T01:35:49;-1.20;99.90
8709;DHT22;4391;48.678;9.280;2022-12-08T01:38:16;-1.30;99.90
8709;DHT22;4391;48.678;9.280;2022-12-08T01:40:44;-1.30;99.90
8709;DHT22;4391;48.678;9.280;2022-12-08T01:43:13;-1.30;99.90
8709;DHT22;4391;48.678;9.280;2022-12-08T01:45:41;-1.40;99.90
8709;DHT22;4391;48.678;9.280;2022-12-08T01:48:12;-1.50;99.90
8709;DHT22;4391;48.678;9.280;2022-12-08T01:50:43;-1.60;99.90
8709;DHT22;4391;48.678;9.280;2022-12-08T01:53:13;-1.50;99.90
8709;DHT22;4391;48.678;9.280;2022-12-08T01:55:47;-1.40;99.90
8709;DHT22;4391;48.678;9.280;2022-12-08T01:58:18;-1.40;99.90
8709;DHT22;4391;48.678;9.280;2022-12-08T02:00:47;-1.40;99.90
8709;DHT22;4391;48.678;9.280;2022-12-08T02:05:41;-1.60;99.90
8709;DHT22;4391;48.678;9.280;2022-12-08T02:08:10;-1.60;99.90
8709;DHT22;4391;48.678;9.280;2022-12-08T02:10:39;-1.50;99.90
8709;DHT22;4391;48.678;9.280;2022-12-08T02:13:10;-1.40;99.90
8709;DHT22;4391;48.678;9.280;2022-12-08T02:15:47;-1.30;99.90
8709;DHT22;4391;48.678;9.280;2022-12-08T02:18:29;-1.20;99.90
8709;DHT22;4391;48.678;9.280;2022-12-08T02:21:03;-1.20;99.90
8709;DHT22;4391;48.678;9.280;2022-12-08T02:23:40;-1.20;99.90
8709;DHT22;4391;48.678;9.280;2022-12-08T02:26:43;-1.20;99.90
8709;DHT22;4391;48.678;9.280;2022-12-08T02:29:37;-1.30;99.90
8709;DHT22;4391;48.678;9.280;2022-12-08T02:32:29;-1.30;99.90
8709;DHT22;4391;48.678;9.280;2022-12-08T02:35:09;-1.20;99.90
8709;DHT22;4391;48.678;9.280;2022-12-08T02:37:41;-1.20;99.90
8709;DHT22;4391;48.678;9.280;2022-12-08T02:40:13;-1.10;99.90
8709;DHT22;4391;48.678;9.280;2022-12-08T02:42:45;-1.10;99.90
8709;DHT22;4391;48.678;9.280;2022-12-08T02:45:16;-1.20;99.90
8709;DHT22;4391;48.678;9.280;2022-12-08T02:47:44;-1.30;99.90
8709;DHT22;4391;48.678;9.280;2022-12-08T02:50:14;-1.30;99.90
8709;DHT22;4391;48.678;9.280;2022-12-08T02:52:43;-1.30;99.90
8709;DHT22;4391;48.678;9.280;2022-12-08T02:55:25;-1.40;99.90
8709;DHT22;4391;48.678;9.280;2022-12-08T03:01:12;-1.50;99.90
8709;DHT22;4391;48.678;9.280;2022-12-08T03:03:45;-1.50;99.90
8709;DHT22;4391;48.678;9.280;2022-12-08T03:06:24;-1.50;99.90
8709;DHT22;4391;48.678;9.280;2022-12-08T03:08:56;-1.60;99.90
8709;DHT22;4391;48.678;9.280;2022-12-08T03:11:27;-1.60;99.90
8709;DHT22;4391;48.678;9.280;2022-12-08T03:13:58;-1.70;99.90
8709;DHT22;4391;48.678;9.280;2022-12-08T03:16:27;-1.70;99.90
8709;DHT22;4391;48.678;9.280;2022-12-08T03:18:59;-1.80;99.90
8709;DHT22;4391;48.678;9.280;2022-12-08T03:21:29;-2.00;99.90
8709;DHT22;4391;48.678;9.280;2022-12-08T03:23:57;-2.10;99.90
8709;DHT22;4391;48.678;9.280;2022-12-08T03:26:29;-2.20;99.90
8709;DHT22;4391;48.678;9.280;2022-12-08T03:28:57;-2.30;99.90
8709;DHT22;4391;48.678;9.280;2022-12-08T03:31:26;-2.30;99.90
8709;DHT22;4391;48.678;9.280;2022-12-08T03:33:56;-2.40;99.90
8709;DHT22;4391;48.678;9.280;2022-12-08T03:36:24;-2.40;99.90
8709;DHT22;4391;48.678;9.280;2022-12-08T03:38:53;-2.40;99.90
8709;DHT22;4391;48.678;9.280;2022-12-08T03:41:21;-2.40;99.90
8709;DHT22;4391;48.678;9.280;2022-12-08T03:43:49;-2.40;99.90
8709;DHT22;4391;48.678;9.280;2022-12-08T03:46:16;-2.40;99.90
8709;DHT22;4391;48.678;9.280;2022-12-08T03:48:44;-2.30;99.90
8709;DHT22;4391;48.678;9.280;2022-12-08T03:51:11;-2.20;99.90
8709;DHT22;4391;48.678;9.280;2022-12-08T03:53:38;-2.00;99.90
8709;DHT22;4391;48.678;9.280;2022-12-08T03:56:14;-2.00;99.90
8709;DHT22;4391;48.678;9.280;2022-12-08T03:58:42;-1.90;99.90
8709;DHT22;4391;48.678;9.280;2022-12-08T04:01:08;-1.90;99.90
8709;DHT22;4391;48.678;9.280;2022-12-08T04:03:36;-2.00;99.90
8709;DHT22;4391;48.678;9.280;2022-12-08T04:06:03;-2.00;99.90
8709;DHT22;4391;48.678;9.280;2022-12-08T04:08:30;-2.00;99.90
8709;DHT22;4391;48.678;9.280;2022-12-08T04:10:56;-2.10;99.90
8709;DHT22;4391;48.678;9.280;2022-12-08T04:13:25;-2.10;99.90
8709;DHT22;4391;48.678;9.280;2022-12-08T04:15:52;-2.10;99.90
8709;DHT22;4391;48.678;9.280;2022-12-08T04:18:18;-2.20;99.90
8709;DHT22;4391;48.678;9.280;2022-12-08T04:20:45;-2.30;99.90
8709;DHT22;4391;48.678;9.280;2022-12-08T04:23:12;-2.40;99.90
8709;DHT22;4391;48.678;9.280;2022-12-08T04:25:39;-2.50;99.90
8709;DHT22;4391;48.678;9.280;2022-12-08T04:28:06;-2.60;99.90
8709;DHT22;4391;48.678;9.280;2022-12-08T04:30:34;-2.60;99.90
8709;DHT22;4391;48.678;9.280;2022-12-08T04:33:02;-2.70;99.90
8709;DHT22;4391;48.678;9.280;2022-12-08T04:35:29;-2.70;99.90
8709;DHT22;4391;48.678;9.280;2022-12-08T04:37:55;-2.70;99.90
8709;DHT22;4391;48.678;9.280;2022-12-08T04:40:23;-2.60;99.90
8709;DHT22;4391;48.678;9.280;2022-12-08T04:42:49;-2.60;99.90
8709;DHT22;4391;48.678;9.280;2022-12-08T04:45:16;-2.60;99.90
8709;DHT22;4391;48.678;9.280;2022-12-08T04:47:45;-2.70;99.90
8709;DHT22;4391;48.678;9.280;2022-12-08T04:50:11;-2.60;99.90
8709;DHT22;4391;48.678;9.280;2022-12-08T04:52:39;-2.60;99.90
8709;DHT22;4391;48.678;9.280;2022-12-08T04:55:06;-2.70;99.90
8709;DHT22;4391;48.678;9.280;2022-12-08T04:57:33;-2.70;99.90
8709;DHT22;4391;48.678;9.280;2022-12-08T05:00:00;-2.80;99.90
8709;DHT22;4391;48.678;9.280;2022-12-08T05:02:26;-2.80;99.90
8709;DHT22;4391;48.678;9.280;2022-12-08T05:04:55;-2.90;99.90
8709;DHT22;4391;48.678;9.280;2022-12-08T05:07:21;-2.90;99.90
8709;DHT22;4391;48.678;9.280;2022-12-08T05:09:48;-3.00;99.90
8709;DHT22;4391;48.678;9.280;2022-12-08T05:12:15;-3.00;99.90
8709;DHT22;4391;48.678;9.280;2022-12-08T05:14:42;-3.10;99.90
8709;DHT22;4391;48.678;9.280;2022-12-08T05:17:09;-3.10;99.90
8709;DHT22;4391;48.678;9.280;2022-12-08T05:19:36;-3.10;99.90
8709;DHT22;4391;48.678;9.280;2022-12-08T05:22:04;-3.10;99.90
8709;DHT22;4391;48.678;9.280;2022-12-08T05:24:31;-3.00;99.90
8709;DHT22;4391;48.678;9.280;2022-12-08T05:26:58;-2.90;99.90
8709;DHT22;4391;48.678;9.280;2022-12-08T05:29:25;-2.90;99.90
8709;DHT22;4391;48.678;9.280;2022-12-08T05:31:52;-2.80;99.90
8709;DHT22;4391;48.678;9.280;2022-12-08T05:34:18;-2.70;99.90
8709;DHT22;4391;48.678;9.280;2022-12-08T05:36:45;-2.70;99.90
8709;DHT22;4391;48.678;9.280;2022-12-08T05:39:14;-2.70;99.90
8709;DHT22;4391;48.678;9.280;2022-12-08T05:41:41;-2.70;99.90
8709;DHT22;4391;48.678;9.280;2022-12-08T05:44:08;-2.70;99.90
8709;DHT22;4391;48.678;9.280;2022-12-08T05:46:35;-2.70;99.90
8709;DHT22;4391;48.678;9.280;2022-12-08T05:49:02;-2.80;99.90
8709;DHT22;4391;48.678;9.280;2022-12-08T05:51:29;-2.90;99.90
8709;DHT22;4391;48.678;9.280;2022-12-08T05:53:56;-2.90;99.90
8709;DHT22;4391;48.678;9.280;2022-12-08T05:56:24;-3.00;99.90
8709;DHT22;4391;48.678;9.280;2022-12-08T05:58:51;-3.00;99.90
8709;DHT22;4391;48.678;9.280;2022-12-08T06:01:20;-3.00;99.90
8709;DHT22;4391;48.678;9.280;2022-12-08T06:03:47;-3.10;99.90
8709;DHT22;4391;48.678;9.280;2022-12-08T06:06:14;-3.10;99.90
8709;DHT22;4391;48.678;9.280;2022-12-08T06:08:40;-3.20;99.90
8709;DHT22;4391;48.678;9.280;2022-12-08T06:11:07;-3.30;99.90
8709;DHT22;4391;48.678;9.280;2022-12-08T06:13:36;-3.30;99.90
8709;DHT22;4391;48.678;9.280;2022-12-08T06:16:03;-3.30;99.90
8709;DHT22;4391;48.678;9.280;2022-12-08T06:18:31;-3.30;99.90
8709;DHT22;4391;48.678;9.280;2022-12-08T06:21:02;-3.30;99.90
8709;DHT22;4391;48.678;9.280;2022-12-08T06:23:29;-3.40;99.90
8709;DHT22;4391;48.678;9.280;2022-12-08T06:25:59;-3.40;99.90
8709;DHT22;4391;48.678;9.280;2022-12-08T06:28:27;-3.50;99.90
8709;DHT22;4391;48.678;9.280;2022-12-08T06:30:56;-3.50;99.90
8709;DHT22;4391;48.678;9.280;2022-12-08T06:33:23;-3.50;99.90
8709;DHT22;4391;48.678;9.280;2022-12-08T06:35:50;-3.50;99.90
8709;DHT22;4391;48.678;9.280;2022-12-08T06:38:17;-3.50;99.90
8709;DHT22;4391;48.678;9.280;2022-12-08T06:40:52;-3.50;99.90
8709;DHT22;4391;48.678;9.280;2022-12-08T06:43:19;-3.50;99.90
8709;DHT22;4391;48.678;9.280;2022-12-08T06:45:45;-3.50;99.90
8709;DHT22;4391;48.678;9.280;2022-12-08T06:48:14;-3.50;99.90
8709;DHT22;4391;48.678;9.280;2022-12-08T06:50:41;-3.40;99.90
8709;DHT22;4391;48.678;9.280;2022-12-08T06:53:08;-3.30;99.90
8709;DHT22;4391;48.678;9.280;2022-12-08T06:55:36;-3.30;99.90
8709;DHT22;4391;48.678;9.280;2022-12-08T06:58:03;-3.30;99.90
8709;DHT22;4391;48.678;9.280;2022-12-08T07:00:30;-3.40;99.90
8709;DHT22;4391;48.678;9.280;2022-12-08T07:02:56;-3.40;99.90
8709;DHT22;4391;48.678;9.280;2022-12-08T07:05:25;-3.40;99.90
8709;DHT22;4391;48.678;9.280;2022-12-08T07:07:51;-3.50;99.90
8709;DHT22;4391;48.678;9.280;2022-12-08T07:10:18;-3.50;99.90
8709;DHT22;4391;48.678;9.280;2022-12-08T07:12:45;-3.50;99.90
8709;DHT22;4391;48.678;9.280;2022-12-08T07:15:12;-3.60;99.90
8709;DHT22;4391;48.678;9.280;2022-12-08T07:17:39;-3.50;99.90
8709;DHT22;4391;48.678;9.280;2022-12-08T07:20:07;-3.50;99.90
8709;DHT22;4391;48.678;9.280;2022-12-08T07:22:35;-3.50;99.90
8709;DHT22;4391;48.678;9.280;2022-12-08T07:25:02;-3.50;99.90
8709;DHT22;4391;48.678;9.280;2022-12-08T07:27:29;-3.30;99.90
8709;DHT22;4391;48.678;9.280;2022-12-08T07:29:56;-3.20;99.90
8709;DHT22;4391;48.678;9.280;2022-12-08T07:32:22;-3.10;99.90
8709;DHT22;4391;48.678;9.280;2022-12-08T07:34:49;-3.10;99.90
8709;DHT22;4391;48.678;9.280;2022-12-08T07:37:16;-3.00;99.90
8709;DHT22;4391;48.678;9.280;2022-12-08T07:39:45;-3.00;99.90
8709;DHT22;4391;48.678;9.280;2022-12-08T07:42:12;-3.10;99.90
8709;DHT22;4391;48.678;9.280;2022-12-08T07:44:39;-3.10;99.90
8709;DHT22;4391;48.678;9.280;2022-12-08T07:47:06;-3.10;99.90
8709;DHT22;4391;48.678;9.280;2022-12-08T07:49:33;-3.10;99.90
8709;DHT22;4391;48.678;9.280;2022-12-08T07:51:59;-3.10;99.90
8709;DHT22;4391;48.678;9.280;2022-12-08T07:54:26;-3.10;99.90
8709;DHT22;4391;48.678;9.280;2022-12-08T07:56:56;-3.10;99.90
8709;DHT22;4391;48.678;9.280;2022-12-08T07:59:23;-3.10;99.90
8709;DHT22;4391;48.678;9.280;2022-12-08T08:01:50;-3.00;99.90
8709;DHT22;4391;48.678;9.280;2022-12-08T08:04:17;-2.90;99.90
8709;DHT22;4391;48.678;9.280;2022-12-08T08:06:44;-2.80;99.90
8709;DHT22;4391;48.678;9.280;2022-12-08T08:09:11;-2.70;99.90
8709;DHT22;4391;48.678;9.280;2022-12-08T08:11:37;-2.50;99.90
8709;DHT22;4391;48.678;9.280;2022-12-08T08:14:05;-2.30;99.90
8709;DHT22;4391;48.678;9.280;2022-12-08T08:16:32;-2.10;99.90
8709;DHT22;4391;48.678;9.280;2022-12-08T08:18:59;-1.90;99.90
8709;DHT22;4391;48.678;9.280;2022-12-08T08:21:26;-1.90;99.90
8709;DHT22;4391;48.678;9.280;2022-12-08T08:23:53;-1.70;99.90
8709;DHT22;4391;48.678;9.280;2022-12-08T08:26:20;-1.60;99.90
8709;DHT22;4391;48.678;9.280;2022-12-08T08:28:46;-1.50;99.90
8709;DHT22;4391;48.678;9.280;2022-12-08T08:31:15;-1.40;99.90
8709;DHT22;4391;48.678;9.280;2022-12-08T08:33:42;-1.20;99.90
8709;DHT22;4391;48.678;9.280;2022-12-08T08:36:10;-1.00;99.90
8709;DHT22;4391;48.678;9.280;2022-12-08T08:38:36;-0.70;99.90
8709;DHT22;4391;48.678;9.280;2022-12-08T08:41:07;-0.50;99.90
8709;DHT22;4391;48.678;9.280;2022-12-08T08:43:34;-0.30;94.60
8709;DHT22;4391;48.678;9.280;2022-12-08T08:46:02;-0.10;75.60
8709;DHT22;4391;48.678;9.280;2022-12-08T08:48:31;0.10;66.30
8709;DHT22;4391;48.678;9.280;2022-12-08T08:51:05;0.20;44.30
8709;DHT22;4391;48.678;9.280;2022-12-08T08:53:31;0.20;30.80
8709;DHT22;4391;48.678;9.280;2022-12-08T08:55:59;0.40;22.30
8709;DHT22;4391;48.678;9.280;2022-12-08T08:58:26;0.50;17.40
8709;DHT22;4391;48.678;9.280;2022-12-08T09:00:53;0.60;15.40
8709;DHT22;4391;48.678;9.280;2022-12-08T09:03:19;0.90;10.40
8709;DHT22;4391;48.678;9.280;2022-12-08T09:05:49;1.10;1.00
8709;DHT22;4391;48.678;9.280;2022-12-08T09:08:16;1.40;1.00
8709;DHT22;4391;48.678;9.280;2022-12-08T09:10:43;1.40;1.00
8709;DHT22;4391;48.678;9.280;2022-12-08T09:13:10;1.50;1.00
8709;DHT22;4391;48.678;9.280;2022-12-08T09:15:37;1.60;1.00
8709;DHT22;4391;48.678;9.280;2022-12-08T09:18:04;1.80;1.00
8709;DHT22;4391;48.678;9.280;2022-12-08T09:20:31;1.90;1.00
8709;DHT22;4391;48.678;9.280;2022-12-08T09:22:59;2.10;1.00
8709;DHT22;4391;48.678;9.280;2022-12-08T09:25:27;2.00;1.00
8709;DHT22;4391;48.678;9.280;2022-12-08T09:27:54;2.10;1.00
8709;DHT22;4391;48.678;9.280;2022-12-08T09:30:21;2.10;1.00
8709;DHT22;4391;48.678;9.280;2022-12-08T09:32:48;2.10;1.00
8709;DHT22;4391;48.678;9.280;2022-12-08T09:35:15;2.20;1.00
8709;DHT22;4391;48.678;9.280;2022-12-08T09:37:42;2.40;99.90
8709;DHT22;4391;48.678;9.280;2022-12-08T09:40:16;2.60;99.90
8709;DHT22;4391;48.678;9.280;2022-12-08T09:42:49;3.10;99.90
8709;DHT22;4391;48.678;9.280;2022-12-08T09:45:18;3.60;1.00
8709;DHT22;4391;48.678;9.280;2022-12-08T09:47:51;3.70;99.90
8709;DHT22;4391;48.678;9.280;2022-12-08T09:50:29;3.80;1.00
8709;DHT22;4391;48.678;9.280;2022-12-08T09:53:01;4.10;99.90
8709;DHT22;4391;48.678;9.280;2022-12-08T09:55:37;4.40;99.90
8709;DHT22;4391;48.678;9.280;2022-12-08T09:58:12;4.70;99.90
8709;DHT22;4391;48.678;9.280;2022-12-08T10:00:41;4.90;1.00
8709;DHT22;4391;48.678;9.280;2022-12-08T10:03:10;5.10;1.00
8709;DHT22;4391;48.678;9.280;2022-12-08T10:05:41;5.20;1.00
8709;DHT22;4391;48.678;9.280;2022-12-08T10:08:16;5.60;1.00
8709;DHT22;4391;48.678;9.280;2022-12-08T10:10:48;5.80;99.90
8709;DHT22;4391;48.678;9.280;2022-12-08T10:13:23;6.10;99.90
8709;DHT22;4391;48.678;9.280;2022-12-08T10:15:58;6.10;72.90
8709;DHT22;4391;48.678;9.280;2022-12-08T10:18:31;6.00;99.90
8709;DHT22;4391;48.678;9.280;2022-12-08T10:21:10;6.30;99.90
8709;DHT22;4391;48.678;9.280;2022-12-08T10:23:40;6.60;99.90
8709;DHT22;4391;48.678;9.280;2022-12-08T10:26:13;7.00;5.70
8709;DHT22;4391;48.678;9.280;2022-12-08T10:28:40;7.60;1.00
8709;DHT22;4391;48.678;9.280;2022-12-08T10:31:14;8.10;1.00
8709;DHT22;4391;48.678;9.280;2022-12-08T10:33:41;8.70;1.00
8709;DHT22;4391;48.678;9.280;2022-12-08T10:36:09;9.10;1.00
8709;DHT22;4391;48.678;9.280;2022-12-08T10:38:38;9.30;1.00
8709;DHT22;4391;48.678;9.280;2022-12-08T10:41:10;8.80;1.00
8709;DHT22;4391;48.678;9.280;2022-12-08T10:43:43;8.40;1.00
8709;DHT22;4391;48.678;9.280;2022-12-08T10:46:14;8.50;1.00
8709;DHT22;4391;48.678;9.280;2022-12-08T10:48:50;8.60;1.00
8709;DHT22;4391;48.678;9.280;2022-12-08T10:51:24;8.50;1.00
8709;DHT22;4391;48.678;9.280;2022-12-08T10:53:50;8.60;1.00
8709;DHT22;4391;48.678;9.280;2022-12-08T10:56:17;8.30;1.00
8709;DHT22;4391;48.678;9.280;2022-12-08T10:58:46;8.00;1.00
8709;DHT22;4391;48.678;9.280;2022-12-08T11:01:17;8.70;1.00
8709;DHT22;4391;48.678;9.280;2022-12-08T11:03:47;8.70;1.00
8709;DHT22;4391;48.678;9.280;2022-12-08T11:06:17;8.20;99.90
8709;DHT22;4391;48.678;9.280;2022-12-08T11:08:50;7.50;1.00
8709;DHT22;4391;48.678;9.280;2022-12-08T11:11:18;7.40;1.00
8709;DHT22;4391;48.678;9.280;2022-12-08T11:13:49;7.30;1.00
8709;DHT22;4391;48.678;9.280;2022-12-08T11:16:17;6.90;1.00
8709;DHT22;4391;48.678;9.280;2022-12-08T11:18:49;6.60;1.00
8709;DHT22;4391;48.678;9.280;2022-12-08T11:21:31;6.90;1.00
8709;DHT22;4391;48.678;9.280;2022-12-08T11:24:10;7.00;1.00
8709;DHT22;4391;48.678;9.280;2022-12-08T11:26:48;7.20;1.00
8709;DHT22;4391;48.678;9.280;2022-12-08T11:29:17;7.40;1.00
8709;DHT22;4391;48.678;9.280;2022-12-08T11:31:47;7.50;1.00
8709;DHT22;4391;48.678;9.280;2022-12-08T11:34:19;7.40;1.00
8709;DHT22;4391;48.678;9.280;2022-12-08T11:36:46;7.40;1.00
8709;DHT22;4391;48.678;9.280;2022-12-08T11:39:14;7.50;1.00
8709;DHT22;4391;48.678;9.280;2022-12-08T11:41:43;7.30;1.00
8709;DHT22;4391;48.678;9.280;2022-12-08T11:44:23;7.40;1.00
8709;DHT22;4391;48.678;9.280;2022-12-08T11:46:54;7.20;1.00
8709;DHT22;4391;48.678;9.280;2022-12-08T11:49:27;6.50;1.00
8709;DHT22;4391;48.678;9.280;2022-12-08T11:52:01;6.60;1.00
8709;DHT22;4391;48.678;9.280;2022-12-08T11:54:31;6.90;1.00
8709;DHT22;4391;48.678;9.280;2022-12-08T11:57:00;7.00;1.00
8709;DHT22;4391;48.678;9.280;2022-12-08T11:59:31;7.90;1.00
8709;DHT22;4391;48.678;9.280;2022-12-08T12:02:00;8.80;99.90
8709;DHT22;4391;48.678;9.280;2022-12-08T12:04:30;9.30;99.90
8709;DHT22;4391;48.678;9.280;2022-12-08T12:07:22;9.00;99.90
8709;DHT22;4391;48.678;9.280;2022-12-08T12:10:04;8.80;99.90
8709;DHT22;4391;48.678;9.280;2022-12-08T12:12:45;8.60;99.90
8709;DHT22;4391;48.678;9.280;2022-12-08T12:15:46;8.50;99.90
8709;DHT22;4391;48.678;9.280;2022-12-08T12:18:23;8.70;1.00
8709;DHT22;4391;48.678;9.280;2022-12-08T12:20:53;8.40;99.90
8709;DHT22;4391;48.678;9.280;2022-12-08T12:23:26;7.80;99.90
8709;DHT22;4391;48.678;9.280;2022-12-08T12:25:56;7.30;99.90
8709;DHT22;4391;48.678;9.280;2022-12-08T12:28:26;6.70;1.00
8709;DHT22;4391;48.678;9.280;2022-12-08T12:30:59;6.40;1.00
8709;DHT22;4391;48.678;9.280;2022-12-08T12:33:29;6.20;1.00
8709;DHT22;4391;48.678;9.280;2022-12-08T12:35:57;6.00;1.00
8709;DHT22;4391;48.678;9.280;2022-12-08T12:38:31;7.10;1.00
8709;DHT22;4391;48.678;9.280;2022-12-08T12:41:22;9.50;99.90
8709;DHT22;4391;48.678;9.280;2022-12-08T12:44:22;12.10;99.90
8709;DHT22;4391;48.678;9.280;2022-12-08T12:46:56;13.90;99.90
8709;DHT22;4391;48.678;9.280;2022-12-08T12:49:49;16.00;99.90
8709;DHT22;4391;48.678;9.280;2022-12-08T12:52:36;17.40;99.90
8709;DHT22;4391;48.678;9.280;2022-12-08T12:55:25;18.20;99.90
8709;DHT22;4391;48.678;9.280;2022-12-08T12:57:54;17.80;99.90
8709;DHT22;4391;48.678;9.280;2022-12-08T13:00:22;18.40;99.90
8709;DHT22;4391;48.678;9.280;2022-12-08T13:02:52;18.40;99.90
8709;DHT22;4391;48.678;9.280;2022-12-08T13:05:21;18.20;99.90
8709;DHT22;4391;48.678;9.280;2022-12-08T13:07:52;17.70;99.90
8709;DHT22;4391;48.678;9.280;2022-12-08T13:10:22;17.00;99.90
8709;DHT22;4391;48.678;9.280;2022-12-08T13:13:05;15.70;99.90
8709;DHT22;4391;48.678;9.280;2022-12-08T13:15:35;14.80;99.90
8709;DHT22;4391;48.678;9.280;2022-12-08T13:18:04;13.50;99.90
8709;DHT22;4391;48.678;9.280;2022-12-08T13:20:40;11.60;99.90
8709;DHT22;4391;48.678;9.280;2022-12-08T13:23:24;9.80;99.90
8709;DHT22;4391;48.678;9.280;2022-12-08T13:26:07;8.70;99.90
8709;DHT22;4391;48.678;9.280;2022-12-08T13:31:47;6.60;99.90
8709;DHT22;4391;48.678;9.280;2022-12-08T13:34:19;6.20;99.90
8709;DHT22;4391;48.678;9.280;2022-12-08T13:36:56;5.80;99.90
8709;DHT22;4391;48.678;9.280;2022-12-08T13:39:29;5.60;1.00
8709;DHT22;4391;48.678;9.280;2022-12-08T13:42:01;5.40;1.00
8709;DHT22;4391;48.678;9.280;2022-12-08T13:44:37;5.00;1.00
8709;DHT22;4391;48.678;9.280;2022-12-08T13:47:09;4.80;1.00
8709;DHT22;4391;48.678;9.280;2022-12-08T13:49:41;4.70;1.00
8709;DHT22;4391;48.678;9.280;2022-12-08T13:52:15;4.30;1.00
8709;DHT22;4391;48.678;9.280;2022-12-08T13:54:42;4.00;1.00
8709;DHT22;4391;48.678;9.280;2022-12-08T13:57:22;3.70;1.00
8709;DHT22;4391;48.678;9.280;2022-12-08T13:59:50;3.70;40.50
8709;DHT22;4391;48.678;9.280;2022-12-08T14:02:19;3.50;34.90
8709;DHT22;4391;48.678;9.280;2022-12-08T14:04:53;3.50;99.90
8709;DHT22;4391;48.678;9.280;2022-12-08T14:07:21;3.60;99.90
8709;DHT22;4391;48.678;9.280;2022-12-08T14:09:48;3.60;99.90
8709;DHT22;4391;48.678;9.280;2022-12-08T14:12:19;3.70;99.90
8709;DHT22;4391;48.678;9.280;2022-12-08T14:14:49;3.70;1.00
8709;DHT22;4391;48.678;9.280;2022-12-08T14:17:18;3.70;1.00
8709;DHT22;4391;48.678;9.280;2022-12-08T14:19:54;3.60;24.30
8709;DHT22;4391;48.678;9.280;2022-12-08T14:22:21;3.70;80.70
8709;DHT22;4391;48.678;9.280;2022-12-08T14:24:50;3.70;1.00
8709;DHT22;4391;48.678;9.280;2022-12-08T14:27:19;3.70;1.00
8709;DHT22;4391;48.678;9.280;2022-12-08T14:29:48;3.60;1.00
8709;DHT22;4391;48.678;9.280;2022-12-08T14:32:25;3.60;1.00
8709;DHT22;4391;48.678;9.280;2022-12-08T14:34:57;3.60;1.00
8709;DHT22;4391;48.678;9.280;2022-12-08T14:37:25;3.50;99.90
8709;DHT22;4391;48.678;9.280;2022-12-08T14:39:57;3.50;99.90
8709;DHT22;4391;48.678;9.280;2022-12-08T14:42:27;3.60;99.90
8709;DHT22;4391;48.678;9.280;2022-12-08T14:44:56;3.50;99.90
8709;DHT22;4391;48.678;9.280;2022-12-08T14:47:28;3.40;99.90
8709;DHT22;4391;48.678;9.280;2022-12-08T14:49:57;3.40;1.00
8709;DHT22;4391;48.678;9.280;2022-12-08T14:52:25;3.30;1.00
8709;DHT22;4391;48.678;9.280;2022-12-08T14:54:53;3.20;1.00
8709;DHT22;4391;48.678;9.280;2022-12-08T14:57:21;3.10;99.90
8709;DHT22;4391;48.678;9.280;2022-12-08T14:59:48;3.00;99.90
8709;DHT22;4391;48.678;9.280;2022-12-08T15:02:29;3.00;99.90
8709;DHT22;4391;48.678;9.280;2022-12-08T15:05:02;2.80;99.90
8709;DHT22;4391;48.678;9.280;2022-12-08T15:07:33;2.80;1.00
8709;DHT22;4391;48.678;9.280;2022-12-08T15:10:19;2.70;23.00
8709;DHT22;4391;48.678;9.280;2022-12-08T15:13:02;2.70;59.90
8709;DHT22;4391;48.678;9.280;2022-12-08T15:15:31;2.60;99.90
8709;DHT22;4391;48.678;9.280;2022-12-08T15:18:11;2.60;1.00
8709;DHT22;4391;48.678;9.280;2022-12-08T15:20:42;2.50;99.90
8709;DHT22;4391;48.678;9.280;2022-12-08T15:23:19;2.50;99.90
8709;DHT22;4391;48.678;9.280;2022-12-08T15:25:47;2.50;1.00
8709;DHT22;4391;48.678;9.280;2022-12-08T15:28:16;2.40;1.00
8709;DHT22;4391;48.678;9.280;2022-12-08T15:30:43;2.40;1.00
8709;DHT22;4391;48.678;9.280;2022-12-08T15:33:10;2.40;99.90
8709;DHT22;4391;48.678;9.280;2022-12-08T15:35:37;2.30;99.90
8709;DHT22;4391;48.678;9.280;2022-12-08T15:38:06;2.30;99.90
8709;DHT22;4391;48.678;9.280;2022-12-08T15:40:33;2.30;1.00
8709;DHT22;4391;48.678;9.280;2022-12-08T15:42:59;2.20;1.00
8709;DHT22;4391;48.678;9.280;2022-12-08T15:45:30;2.20;1.00
8709;DHT22;4391;48.678;9.280;2022-12-08T15:47:57;2.20;1.00
8709;DHT22;4391;48.678;9.280;2022-12-08T15:50:24;2.20;99.90
8709;DHT22;4391;48.678;9.280;2022-12-08T15:52:51;2.20;1.00
8709;DHT22;4391;48.678;9.280;2022-12-08T15:55:20;2.30;1.00
8709;DHT22;4391;48.678;9.280;2022-12-08T15:57:49;2.20;1.00
8709;DHT22;4391;48.678;9.280;2022-12-08T16:00:26;2.10;99.90
8709;DHT22;4391;48.678;9.280;2022-12-08T16:02:55;2.10;99.90
8709;DHT22;4391;48.678;9.280;2022-12-08T16:05:23;2.10;99.90
8709;DHT22;4391;48.678;9.280;2022-12-08T16:07:50;2.00;99.90
8709;DHT22;4391;48.678;9.280;2022-12-08T16:10:22;2.10;1.00
8709;DHT22;4391;48.678;9.280;2022-12-08T16:12:49;2.00;1.00
8709;DHT22;4391;48.678;9.280;2022-12-08T16:15:35;2.00;1.00
8709;DHT22;4391;48.678;9.280;2022-12-08T16:18:02;2.10;99.90
8709;DHT22;4391;48.678;9.280;2022-12-08T16:20:30;2.00;1.00
8709;DHT22;4391;48.678;9.280;2022-12-08T16:22:57;2.00;71.40
8709;DHT22;4391;48.678;9.280;2022-12-08T16:25:25;2.00;99.90
8709;DHT22;4391;48.678;9.280;2022-12-08T16:27:54;2.00;65.20
8709;DHT22;4391;48.678;9.280;2022-12-08T16:30:21;2.00;97.60
8709;DHT22;4391;48.678;9.280;2022-12-08T16:32:48;2.00;1.00
8709;DHT22;4391;48.678;9.280;2022-12-08T16:35:15;1.90;99.90
8709;DHT22;4391;48.678;9.280;2022-12-08T16:37:42;2.00;99.90
8709;DHT22;4391;48.678;9.280;2022-12-08T16:40:11;2.00;99.90